Spacecraft Satellite overpass computed based on SGP4 code. Updated every day at 2:25 LT
Spacecraft : Terra    
         GMT                             Satellite      Satellite     Solar          Solar         Scat ang       
  year-mo-da hr:mn:sc    elevation     azimuth    elevation   azimuth    (bk=180)     
  2022-07-02 07:41:08     10.3             84.6          46.6           111.8         137.0
  2022-07-02 09:19:43     74.3            103.3          59.2           143.7         158.8
  2022-07-02 10:56:57     18.3            302.1          62.8           190.3          96.8
  2022-07-02 18:52:37     20.9             59.5          -1.3           310.2        -999.0
  2022-07-02 20:29:58     63.0            258.3         -11.4           330.4        -999.0
Spacecraft : Aqua    
         GMT                             Satellite      Satellite     Solar          Solar         Scat ang       
  year-mo-da hr:mn:sc    elevation     azimuth    elevation   azimuth    (bk=180)     
  2022-07-02 01:29:05     42.9            292.5          -7.1            39.4        -999.0
  2022-07-02 11:01:40     49.9             69.0          62.7           192.6         121.0
  2022-07-02 12:39:39     23.7            267.3          54.0           233.1         140.4
Spacecraft : CALIPSO    
         GMT                             Satellite      Satellite     Solar          Solar         Scat ang       
  year-mo-da hr:mn:sc    elevation     azimuth    elevation   azimuth    (bk=180)     
  2022-07-02 01:30:17     45.2             99.2          -7.0            39.7        -999.0
  2022-07-02 03:07:26     26.5            297.6           4.4            58.6          64.9
  2022-07-02 11:01:19     13.6             54.4          62.7           192.5          83.0
  2022-07-02 12:37:57     80.6             73.4          54.2           232.6         135.3
  2022-07-02 14:15:53     14.3            271.8          39.9           258.4         151.9
Spacecraft : CloudSat    
         GMT                             Satellite      Satellite     Solar          Solar         Scat ang       
  year-mo-da hr:mn:sc    elevation     azimuth    elevation   azimuth    (bk=180)     
  2022-07-02 01:30:45     44.0             98.9          -6.9            39.8        -999.0
  2022-07-02 03:07:55     27.2            297.4           4.5            58.7          64.8
  2022-07-02 11:01:48     13.4             54.1          62.7           192.7          82.6
  2022-07-02 12:38:25     78.6             73.1          54.1           232.7         133.3
  2022-07-02 14:16:20     14.8            271.6          39.8           258.5         152.5
Spacecraft : ISS    
         GMT                             Satellite      Satellite     Solar          Solar         Scat ang       
  year-mo-da hr:mn:sc    elevation     azimuth    elevation   azimuth    (bk=180)     
  2022-07-02 00:35:55     29.7            146.7         -11.9            28.0        -999.0
  2022-07-02 02:12:27     83.9            345.2          -2.3            48.2        -999.0
  2022-07-02 03:49:22     66.7              5.6          10.3            66.3         110.8
  2022-07-02 05:26:07     54.3            205.2          25.3            83.6          94.0
  2022-07-02 07:02:19     12.9            223.0          40.7           102.6          76.8
  2022-07-02 23:47:41     20.5            142.2         -14.9            16.9        -999.0